Wetterdaten: Woche 08.04.24 - 14.04.24 (KW15)
Datum Zeit Temp. I. Temp. A. Feuchte I. Feuchte A. Luftdruck Regen Wind Richtung Sonnenschein Solar Taupunkt Windchill Windböen
08.04.2024 00:00 22,4 °C 14,8 °C 57 % 88 % 1013,0 hPa 0,0 l/m² 1,3 km/h (1 Bft) O-SO 0,00 h 0 W/m² 12,8 °C 14,8 °C 2,2 km/h (1 Bft)
08.04.2024 01:00 22,3 °C 14,6 °C 57 % 88 % 1012,1 hPa 0,0 l/m² 1,7 km/h (1 Bft) O-SO 0,00 h 0 W/m² 12,7 °C 14,6 °C 3,1 km/h (1 Bft)
08.04.2024 02:00 22,3 °C 14,2 °C 57 % 89 % 1011,8 hPa 0,0 l/m² 0,0 km/h (0 Bft) O-SO 0,00 h 0 W/m² 12,4 °C 14,2 °C 0,1 km/h (0 Bft)
08.04.2024 03:00 22,2 °C 13,1 °C 57 % 91 % 1011,4 hPa 0,0 l/m² 0,2 km/h (0 Bft) O-SO 0,00 h 0 W/m² 11,7 °C 13,1 °C 0,5 km/h (0 Bft)
08.04.2024 04:00 22,2 °C 13,0 °C 57 % 93 % 1011,0 hPa 0,0 l/m² 0,0 km/h (0 Bft) O-SO 0,00 h 0 W/m² 11,8 °C 13,0 °C 0,0 km/h (0 Bft)
08.04.2024 05:00 22,1 °C 12,7 °C 57 % 93 % 1010,7 hPa 0,0 l/m² 0,4 km/h (0 Bft) O-SO 0,00 h 0 W/m² 11,5 °C 12,7 °C 0,8 km/h (0 Bft)
08.04.2024 06:00 22,1 °C 13,3 °C 57 % 92 % 1010,9 hPa 0,0 l/m² 6,6 km/h (2 Bft) W-NW 0,00 h 10 W/m² 12,0 °C 12,3 °C 12,0 km/h (2 Bft)
08.04.2024 07:00 22,1 °C 14,7 °C 57 % 87 % 1011,6 hPa 0,0 l/m² 9,0 km/h (2 Bft) W 0,07 h 33 W/m² 12,6 °C 13,2 °C 15,9 km/h (3 Bft)
08.04.2024 08:00 22,1 °C 14,8 °C 57 % 86 % 1011,5 hPa 0,0 l/m² 4,8 km/h (1 Bft) O-NO 1,00 h 97 W/m² 12,6 °C 14,3 °C 9,0 km/h (2 Bft)
08.04.2024 09:00 22,1 °C 15,7 °C 57 % 86 % 1010,8 hPa 0,0 l/m² 4,6 km/h (1 Bft) O-SO 1,00 h 229 W/m² 13,3 °C 15,4 °C 7,4 km/h (2 Bft)
08.04.2024 10:00 22,4 °C 17,4 °C 56 % 83 % 1011,1 hPa 0,0 l/m² 8,6 km/h (2 Bft) S-SO 1,00 h 401 W/m² 14,4 °C 16,3 °C 12,1 km/h (2 Bft)
08.04.2024 11:00 22,7 °C 18,9 °C 56 % 81 % 1010,7 hPa 0,0 l/m² 6,7 km/h (2 Bft) S-SO 1,00 h 357 W/m² 15,5 °C 18,5 °C 9,9 km/h (2 Bft)
08.04.2024 12:00 22,9 °C 21,5 °C 55 % 74 % 1010,0 hPa 0,0 l/m² 8,2 km/h (2 Bft) S 1,00 h 640 W/m² 16,7 °C 20,9 °C 11,6 km/h (2 Bft)
08.04.2024 13:00 23,2 °C 23,8 °C 55 % 66 % 1009,5 hPa 0,0 l/m² 7,8 km/h (2 Bft) S 1,00 h 673 W/m² 17,1 °C 23,4 °C 11,4 km/h (2 Bft)
08.04.2024 14:00 23,4 °C 25,2 °C 54 % 59 % 1009,3 hPa 0,0 l/m² 10,2 km/h (2 Bft) S 1,00 h 654 W/m² 16,5 °C 24,4 °C 14,3 km/h (3 Bft)
08.04.2024 15:00 23,4 °C 25,1 °C 54 % 60 % 1009,0 hPa 0,0 l/m² 7,6 km/h (2 Bft) S 1,00 h 375 W/m² 16,7 °C 24,8 °C 11,0 km/h (2 Bft)
08.04.2024 16:00 23,2 °C 25,6 °C 55 % 62 % 1008,7 hPa 0,0 l/m² 1,8 km/h (1 Bft) NW 1,00 h 334 W/m² 17,6 °C 25,6 °C 3,1 km/h (1 Bft)
08.04.2024 17:00 23,1 °C 24,9 °C 55 % 62 % 1008,3 hPa 0,0 l/m² 4,4 km/h (1 Bft) S 1,00 h 240 W/m² 17,2 °C 24,9 °C 6,4 km/h (2 Bft)
08.04.2024 18:00 23,1 °C 24,2 °C 56 % 62 % 1007,9 hPa 0,0 l/m² 3,3 km/h (1 Bft) SO 1,00 h 124 W/m² 16,4 °C 24,2 °C 5,0 km/h (1 Bft)
08.04.2024 19:00 22,9 °C 21,6 °C 56 % 70 % 1007,8 hPa 0,0 l/m² 0,3 km/h (0 Bft) SO 0,15 h 26 W/m² 15,7 °C 21,6 °C 0,7 km/h (0 Bft)
08.04.2024 20:00 22,9 °C 18,0 °C 57 % 81 % 1007,8 hPa 0,0 l/m² 0,5 km/h (0 Bft) SO 0,00 h 0 W/m² 14,6 °C 18,0 °C 0,8 km/h (0 Bft)
08.04.2024 21:00 22,9 °C 15,9 °C 58 % 86 % 1007,8 hPa 0,0 l/m² 0,0 km/h (0 Bft) SO 0,00 h 0 W/m² 13,5 °C 15,9 °C 0,0 km/h (0 Bft)
08.04.2024 22:00 22,9 °C 14,2 °C 58 % 88 % 1007,5 hPa 0,0 l/m² 0,0 km/h (0 Bft) SO 0,00 h 0 W/m² 12,2 °C 14,2 °C 0,0 km/h (0 Bft)
08.04.2024 23:00 22,7 °C 12,9 °C 58 % 91 % 1007,4 hPa 0,0 l/m² 0,0 km/h (0 Bft) SO 0,00 h 0 W/m² 11,4 °C 12,9 °C 0,0 km/h (0 Bft)
09.04.2024 00:00 22,6 °C 12,2 °C 58 % 92 % 1007,1 hPa 0,0 l/m² 1,0 km/h (0 Bft) SO 0,00 h 0 W/m² 10,9 °C 12,2 °C 1,7 km/h (1 Bft)
09.04.2024 01:00 22,6 °C 11,5 °C 58 % 92 % 1006,8 hPa 0,0 l/m² 0,1 km/h (0 Bft) SO 0,00 h 0 W/m² 10,3 °C 11,5 °C 0,4 km/h (0 Bft)
09.04.2024 02:00 22,5 °C 11,1 °C 58 % 93 % 1006,5 hPa 0,0 l/m² 0,0 km/h (0 Bft) SO 0,00 h 0 W/m² 10,0 °C 11,1 °C 0,0 km/h (0 Bft)
09.04.2024 03:00 22,4 °C 10,9 °C 58 % 94 % 1006,3 hPa 0,0 l/m² 0,0 km/h (0 Bft) SO 0,00 h 0 W/m² 9,9 °C 10,9 °C 0,0 km/h (0 Bft)
09.04.2024 04:00 22,3 °C 11,0 °C 58 % 94 % 1006,1 hPa 0,0 l/m² 0,0 km/h (0 Bft) SO 0,00 h 0 W/m² 10,0 °C 11,0 °C 0,0 km/h (0 Bft)
09.04.2024 05:00 22,4 °C 11,2 °C 58 % 94 % 1005,7 hPa 0,0 l/m² 0,9 km/h (0 Bft) SO 0,00 h 0 W/m² 10,2 °C 11,2 °C 2,0 km/h (1 Bft)
09.04.2024 06:00 22,3 °C 11,4 °C 57 % 94 % 1005,5 hPa 0,0 l/m² 0,0 km/h (0 Bft) W 0,00 h 8 W/m² 10,5 °C 11,4 °C 0,0 km/h (0 Bft)
09.04.2024 07:00 22,2 °C 11,8 °C 56 % 93 % 1005,5 hPa 0,0 l/m² 0,0 km/h (0 Bft) W 0,45 h 53 W/m² 10,8 °C 11,8 °C 0,0 km/h (0 Bft)
09.04.2024 08:00 22,3 °C 14,4 °C 56 % 90 % 1005,1 hPa 0,0 l/m² 5,8 km/h (2 Bft) O-NO 0,98 h 182 W/m² 12,7 °C 14,0 °C 8,5 km/h (2 Bft)
09.04.2024 09:00 22,4 °C 17,9 °C 56 % 81 % 1004,8 hPa 0,0 l/m² 1,7 km/h (1 Bft) O-NO 1,02 h 336 W/m² 14,6 °C 17,9 °C 3,3 km/h (1 Bft)
09.04.2024 10:00 22,7 °C 21,0 °C 55 % 76 % 1005,1 hPa 0,0 l/m² 5,8 km/h (2 Bft) S-SW 0,98 h 446 W/m² 16,5 °C 20,7 °C 8,8 km/h (2 Bft)
09.04.2024 11:00 22,8 °C 21,9 °C 55 % 72 % 1005,3 hPa 0,0 l/m² 9,7 km/h (2 Bft) SW 1,00 h 413 W/m² 16,5 °C 20,8 °C 14,5 km/h (3 Bft)
09.04.2024 12:00 22,8 °C 22,1 °C 55 % 64 % 1006,2 hPa 0,0 l/m² 14,4 km/h (3 Bft) W 1,00 h 498 W/m² 14,9 °C 19,9 °C 21,3 km/h (4 Bft)
09.04.2024 13:00 22,9 °C 21,9 °C 55 % 65 % 1007,4 hPa 0,0 l/m² 9,9 km/h (2 Bft) W-NW 1,00 h 448 W/m² 15,0 °C 20,9 °C 17,1 km/h (3 Bft)
09.04.2024 14:00 22,9 °C 21,8 °C 55 % 66 % 1008,4 hPa 0,0 l/m² 8,3 km/h (2 Bft) W-NW 1,00 h 452 W/m² 15,2 °C 21,1 °C 14,5 km/h (3 Bft)
09.04.2024 15:00 22,9 °C 21,0 °C 55 % 67 % 1008,9 hPa 0,0 l/m² 10,1 km/h (2 Bft) W 1,00 h 172 W/m² 14,7 °C 19,7 °C 16,0 km/h (3 Bft)
09.04.2024 16:00 22,7 °C 19,3 °C 55 % 70 % 1010,2 hPa 0,0 l/m² 16,1 km/h (3 Bft) W-SW 0,80 h 85 W/m² 13,8 °C 16,3 °C 22,8 km/h (4 Bft)
09.04.2024 17:00 22,6 °C 16,1 °C 55 % 74 % 1012,3 hPa 0,0 l/m² 16,9 km/h (3 Bft) W 0,53 h 57 W/m² 11,4 °C 12,1 °C 25,0 km/h (4 Bft)
09.04.2024 18:00 22,5 °C 13,7 °C 56 % 76 % 1013,8 hPa 0,2 l/m² 12,1 km/h (2 Bft) W 0,00 h 23 W/m² 9,6 °C 11,0 °C 18,0 km/h (3 Bft)
09.04.2024 19:00 22,4 °C 12,0 °C 57 % 81 % 1015,2 hPa 0,4 l/m² 13,3 km/h (3 Bft) W-SW 0,00 h 13 W/m² 8,8 °C 8,4 °C 19,1 km/h (3 Bft)
09.04.2024 20:00 22,4 °C 10,5 °C 57 % 85 % 1016,5 hPa 0,4 l/m² 4,5 km/h (1 Bft) W-SW 0,00 h 0 W/m² 8,1 °C 10,3 °C 7,0 km/h (2 Bft)
09.04.2024 21:00 22,3 °C 9,8 °C 56 % 89 % 1017,6 hPa 0,6 l/m² 6,1 km/h (2 Bft) S 0,00 h 0 W/m² 8,1 °C 9,6 °C 8,6 km/h (2 Bft)
09.04.2024 22:00 22,2 °C 9,7 °C 56 % 90 % 1017,9 hPa 0,2 l/m² 6,9 km/h (2 Bft) S 0,00 h 0 W/m² 8,1 °C 9,1 °C 9,3 km/h (2 Bft)
09.04.2024 23:00 22,1 °C 9,9 °C 56 % 88 % 1018,0 hPa 0,0 l/m² 9,0 km/h (2 Bft) SW 0,00 h 0 W/m² 8,1 °C 8,2 °C 12,8 km/h (3 Bft)
10.04.2024 00:00 22,1 °C 10,2 °C 56 % 85 % 1018,4 hPa 0,0 l/m² 10,6 km/h (2 Bft) SW 0,00 h 0 W/m² 7,8 °C 7,5 °C 14,8 km/h (3 Bft)
10.04.2024 01:00 21,9 °C 10,0 °C 56 % 84 % 1019,0 hPa 0,0 l/m² 6,3 km/h (2 Bft) SW 0,00 h 0 W/m² 7,5 °C 9,3 °C 10,0 km/h (2 Bft)
10.04.2024 02:00 22,0 °C 9,8 °C 56 % 85 % 1019,6 hPa 0,0 l/m² 6,4 km/h (2 Bft) SW 0,00 h 0 W/m² 7,3 °C 9,2 °C 9,7 km/h (2 Bft)
10.04.2024 03:00 22,0 °C 9,7 °C 56 % 84 % 1020,2 hPa 0,0 l/m² 6,0 km/h (2 Bft) S-SW 0,00 h 0 W/m² 7,1 °C 9,3 °C 8,8 km/h (2 Bft)
10.04.2024 04:00 21,9 °C 9,2 °C 56 % 86 % 1020,8 hPa 0,0 l/m² 8,0 km/h (2 Bft) SW 0,00 h 0 W/m² 6,9 °C 8,1 °C 10,4 km/h (2 Bft)
10.04.2024 05:00 21,9 °C 9,2 °C 56 % 85 % 1021,8 hPa 0,0 l/m² 9,2 km/h (2 Bft) SW 0,00 h 0 W/m² 6,8 °C 7,3 °C 12,7 km/h (3 Bft)
10.04.2024 06:00 21,8 °C 8,8 °C 55 % 86 % 1022,9 hPa 0,0 l/m² 7,2 km/h (2 Bft) S-SW 0,00 h 7 W/m² 6,5 °C 8,0 °C 9,9 km/h (2 Bft)
10.04.2024 07:00 21,8 °C 8,9 °C 54 % 86 % 1023,8 hPa 0,0 l/m² 4,8 km/h (1 Bft) SW 0,47 h 49 W/m² 6,7 °C 8,8 °C 6,9 km/h (2 Bft)
10.04.2024 08:00 21,7 °C 9,9 °C 54 % 84 % 1024,5 hPa 0,0 l/m² 8,9 km/h (2 Bft) SW 1,00 h 181 W/m² 7,3 °C 8,2 °C 12,6 km/h (2 Bft)
10.04.2024 09:00 21,9 °C 11,3 °C 54 % 79 % 1025,5 hPa 0,0 l/m² 9,8 km/h (2 Bft) SW 1,00 h 325 W/m² 7,9 °C 9,2 °C 14,8 km/h (3 Bft)
10.04.2024 10:00 22,1 °C 12,6 °C 54 % 73 % 1026,3 hPa 0,0 l/m² 13,5 km/h (3 Bft) W-SW 1,00 h 387 W/m² 7,8 °C 8,9 °C 19,0 km/h (3 Bft)
10.04.2024 11:00 22,2 °C 12,8 °C 54 % 70 % 1027,1 hPa 0,0 l/m² 14,2 km/h (3 Bft) W-SW 1,00 h 420 W/m² 7,5 °C 8,9 °C 20,0 km/h (4 Bft)
10.04.2024 12:00 22,1 °C 12,6 °C 54 % 70 % 1027,6 hPa 0,0 l/m² 10,5 km/h (2 Bft) W-SW 1,00 h 268 W/m² 7,2 °C 10,3 °C 14,9 km/h (3 Bft)
10.04.2024 13:00 22,1 °C 13,3 °C 54 % 66 % 1028,1 hPa 0,0 l/m² 8,1 km/h (2 Bft) W 1,00 h 373 W/m² 7,2 °C 12,1 °C 12,6 km/h (2 Bft)
10.04.2024 14:00 22,2 °C 13,5 °C 54 % 66 % 1028,4 hPa 0,0 l/m² 3,9 km/h (1 Bft) W 1,00 h 236 W/m² 7,3 °C 13,4 °C 6,9 km/h (2 Bft)
10.04.2024 15:00 22,2 °C 13,7 °C 54 % 66 % 1028,4 hPa 0,0 l/m² 3,2 km/h (1 Bft) W 1,00 h 316 W/m² 7,4 °C 13,7 °C 5,7 km/h (2 Bft)
10.04.2024 16:00 22,2 °C 14,1 °C 54 % 64 % 1028,8 hPa 0,0 l/m² 2,3 km/h (1 Bft) N-NW 1,00 h 186 W/m² 7,3 °C 14,1 °C 4,4 km/h (1 Bft)
10.04.2024 17:00 22,1 °C 13,5 °C 53 % 68 % 1029,4 hPa 0,0 l/m² 1,2 km/h (1 Bft) N-NO 0,50 h 69 W/m² 7,7 °C 13,5 °C 2,6 km/h (1 Bft)
10.04.2024 18:00 22,0 °C 13,4 °C 53 % 70 % 1029,6 hPa 0,0 l/m² 0,1 km/h (0 Bft) N-NO 0,48 h 76 W/m² 8,1 °C 13,4 °C 0,5 km/h (0 Bft)
10.04.2024 19:00 21,9 °C 12,4 °C 51 % 73 % 1029,8 hPa 0,0 l/m² 0,1 km/h (0 Bft) N-NO 0,13 h 28 W/m² 7,7 °C 12,4 °C 0,4 km/h (0 Bft)
10.04.2024 20:00 21,7 °C 9,1 °C 49 % 85 % 1030,3 hPa 0,0 l/m² 0,0 km/h (0 Bft) N-NO 0,00 h 5 W/m² 6,6 °C 9,1 °C 0,1 km/h (0 Bft)
10.04.2024 21:00 21,7 °C 7,0 °C 52 % 88 % 1030,9 hPa 0,0 l/m² 0,0 km/h (0 Bft) N-NO 0,00 h 0 W/m² 5,1 °C 7,0 °C 0,0 km/h (0 Bft)
10.04.2024 22:00 21,7 °C 5,7 °C 53 % 90 % 1031,3 hPa 0,0 l/m² 0,0 km/h (0 Bft) N-NO 0,00 h 0 W/m² 4,2 °C 5,7 °C 0,1 km/h (0 Bft)
10.04.2024 23:00 21,6 °C 4,9 °C 54 % 91 % 1031,8 hPa 0,0 l/m² 0,0 km/h (0 Bft) N-NO 0,00 h 0 W/m² 3,5 °C 4,9 °C 0,0 km/h (0 Bft)
11.04.2024 00:00 21,7 °C 4,2 °C 54 % 92 % 1032,0 hPa 0,0 l/m² 0,0 km/h (0 Bft) N-NO 0,00 h 0 W/m² 3,0 °C 4,2 °C 0,0 km/h (0 Bft)
11.04.2024 01:00 21,7 °C 3,7 °C 54 % 92 % 1031,9 hPa 0,0 l/m² 0,1 km/h (0 Bft) N-NO 0,00 h 0 W/m² 2,6 °C 3,7 °C 0,4 km/h (0 Bft)
11.04.2024 02:00 21,6 °C 3,0 °C 54 % 93 % 1031,9 hPa 0,0 l/m² 0,0 km/h (0 Bft) N-NO 0,00 h 0 W/m² 1,9 °C 3,0 °C 0,0 km/h (0 Bft)
11.04.2024 03:00 21,6 °C 2,6 °C 54 % 93 % 1031,8 hPa 0,0 l/m² 0,0 km/h (0 Bft) N-NO 0,00 h 0 W/m² 1,6 °C 2,6 °C 0,0 km/h (0 Bft)
11.04.2024 04:00 21,6 °C 2,1 °C 54 % 93 % 1031,8 hPa 0,0 l/m² 0,0 km/h (0 Bft) N-NO 0,00 h 0 W/m² 1,1 °C 2,1 °C 0,0 km/h (0 Bft)
11.04.2024 05:00 21,6 °C 1,7 °C 54 % 94 % 1032,0 hPa 0,0 l/m² 0,0 km/h (0 Bft) N-NO 0,00 h 0 W/m² 0,8 °C 1,7 °C 0,0 km/h (0 Bft)
11.04.2024 06:00 21,6 °C 1,2 °C 54 % 94 % 1032,3 hPa 0,0 l/m² 0,0 km/h (0 Bft) N-NO 0,00 h 12 W/m² 0,3 °C 1,2 °C 0,0 km/h (0 Bft)
11.04.2024 07:00 21,4 °C 2,7 °C 52 % 95 % 1032,4 hPa 0,0 l/m² 0,7 km/h (0 Bft) N-NO 0,62 h 84 W/m² 2,0 °C 2,7 °C 1,6 km/h (1 Bft)
11.04.2024 08:00 21,5 °C 7,0 °C 52 % 93 % 1032,4 hPa 0,0 l/m² 2,8 km/h (1 Bft) N-NO 1,00 h 280 W/m² 6,0 °C 7,0 °C 4,4 km/h (1 Bft)
11.04.2024 09:00 21,8 °C 10,8 °C 52 % 83 % 1032,4 hPa 0,0 l/m² 4,7 km/h (1 Bft) S-SW 1,00 h 454 W/m² 8,0 °C 10,6 °C 7,2 km/h (2 Bft)
11.04.2024 10:00 22,2 °C 14,3 °C 52 % 67 % 1032,4 hPa 0,0 l/m² 11,4 km/h (2 Bft) S-SW 1,00 h 609 W/m² 8,1 °C 11,9 °C 16,4 km/h (3 Bft)
11.04.2024 11:00 22,6 °C 15,4 °C 51 % 56 % 1032,7 hPa 0,0 l/m² 19,0 km/h (3 Bft) SW 1,00 h 603 W/m² 6,7 °C 10,5 °C 26,6 km/h (4 Bft)
11.04.2024 12:00 22,8 °C 16,1 °C 51 % 56 % 1032,8 hPa 0,0 l/m² 17,9 km/h (3 Bft) SW 1,00 h 710 W/m² 7,4 °C 11,7 °C 25,9 km/h (4 Bft)
11.04.2024 13:00 22,8 °C 16,4 °C 51 % 55 % 1032,7 hPa 0,0 l/m² 16,7 km/h (3 Bft) SW 1,00 h 498 W/m² 7,2 °C 12,5 °C 24,0 km/h (4 Bft)
11.04.2024 14:00 22,6 °C 16,8 °C 51 % 53 % 1032,2 hPa 0,0 l/m² 14,9 km/h (3 Bft) SW 1,00 h 446 W/m² 7,2 °C 13,4 °C 21,8 km/h (4 Bft)
11.04.2024 15:00 22,3 °C 16,5 °C 45 % 55 % 1031,8 hPa 0,0 l/m² 13,0 km/h (3 Bft) SW 1,02 h 343 W/m² 7,5 °C 13,7 °C 19,0 km/h (3 Bft)
11.04.2024 16:00 22,1 °C 16,5 °C 43 % 55 % 1031,5 hPa 0,0 l/m² 12,1 km/h (2 Bft) SW 1,00 h 270 W/m² 7,5 °C 14,0 °C 18,0 km/h (3 Bft)
11.04.2024 17:00 21,9 °C 16,3 °C 44 % 57 % 1031,5 hPa 0,0 l/m² 10,3 km/h (2 Bft) SW 1,00 h 189 W/m² 7,8 °C 14,5 °C 16,0 km/h (3 Bft)
11.04.2024 18:00 21,9 °C 15,7 °C 47 % 60 % 1031,5 hPa 0,0 l/m² 7,8 km/h (2 Bft) S-SW 1,00 h 108 W/m² 8,0 °C 14,8 °C 11,9 km/h (2 Bft)
11.04.2024 19:00 21,9 °C 14,6 °C 49 % 64 % 1031,6 hPa 0,0 l/m² 3,6 km/h (1 Bft) SW 0,17 h 33 W/m² 7,9 °C 14,5 °C 5,7 km/h (2 Bft)
11.04.2024 20:00 21,8 °C 11,6 °C 51 % 75 % 1031,7 hPa 0,0 l/m² 0,1 km/h (0 Bft) SW 0,00 h 0 W/m² 7,4 °C 11,6 °C 0,8 km/h (0 Bft)
11.04.2024 21:00 21,9 °C 10,2 °C 52 % 81 % 1032,1 hPa 0,0 l/m² 0,1 km/h (0 Bft) SW 0,00 h 0 W/m² 7,1 °C 10,2 °C 0,4 km/h (0 Bft)
11.04.2024 22:00 21,8 °C 10,2 °C 52 % 83 % 1032,4 hPa 0,0 l/m² 0,2 km/h (0 Bft) SW 0,00 h 0 W/m² 7,5 °C 10,2 °C 0,6 km/h (0 Bft)
11.04.2024 23:00 21,6 °C 9,9 °C 52 % 85 % 1032,5 hPa 0,0 l/m² 0,1 km/h (0 Bft) N 0,00 h 0 W/m² 7,5 °C 9,9 °C 0,4 km/h (0 Bft)
12.04.2024 00:00 21,4 °C 8,3 °C 52 % 87 % 1032,5 hPa 0,0 l/m² 0,3 km/h (0 Bft) N 0,00 h 0 W/m² 6,3 °C 8,3 °C 0,9 km/h (0 Bft)
12.04.2024 01:00 21,4 °C 7,1 °C 53 % 90 % 1032,8 hPa 0,0 l/m² 0,0 km/h (0 Bft) N 0,00 h 0 W/m² 5,7 °C 7,1 °C 0,0 km/h (0 Bft)
12.04.2024 02:00 21,4 °C 8,2 °C 53 % 91 % 1032,5 hPa 0,0 l/m² 0,0 km/h (0 Bft) N 0,00 h 0 W/m² 6,8 °C 8,2 °C 0,2 km/h (0 Bft)
12.04.2024 03:00 21,4 °C 7,5 °C 53 % 92 % 1032,2 hPa 0,0 l/m² 0,0 km/h (0 Bft) N 0,00 h 0 W/m² 6,3 °C 7,5 °C 0,1 km/h (0 Bft)
12.04.2024 04:00 21,3 °C 6,3 °C 53 % 93 % 1032,1 hPa 0,0 l/m² 0,1 km/h (0 Bft) N 0,00 h 0 W/m² 5,3 °C 6,3 °C 0,3 km/h (0 Bft)
12.04.2024 05:00 21,4 °C 6,4 °C 53 % 93 % 1032,1 hPa 0,0 l/m² 0,0 km/h (0 Bft) W 0,00 h 0 W/m² 5,3 °C 6,4 °C 0,0 km/h (0 Bft)
12.04.2024 06:00 21,5 °C 6,6 °C 53 % 93 % 1032,1 hPa 0,0 l/m² 0,1 km/h (0 Bft) W 0,00 h 15 W/m² 5,6 °C 6,6 °C 0,3 km/h (0 Bft)
12.04.2024 07:00 21,6 °C 7,0 °C 52 % 94 % 1031,9 hPa 0,0 l/m² 0,8 km/h (0 Bft) W 0,17 h 44 W/m² 6,1 °C 7,0 °C 1,6 km/h (1 Bft)
12.04.2024 08:00 21,6 °C 9,5 °C 52 % 92 % 1032,0 hPa 0,0 l/m² 0,2 km/h (0 Bft) W 1,00 h 220 W/m² 8,3 °C 9,5 °C 0,6 km/h (0 Bft)
12.04.2024 09:00 21,7 °C 13,3 °C 52 % 85 % 1031,9 hPa 0,0 l/m² 2,6 km/h (1 Bft) S-SO 1,02 h 340 W/m² 10,8 °C 13,2 °C 4,8 km/h (1 Bft)
12.04.2024 10:00 22,1 °C 17,0 °C 51 % 77 % 1031,4 hPa 0,0 l/m² 10,3 km/h (2 Bft) S 0,98 h 587 W/m² 12,9 °C 15,3 °C 14,8 km/h (3 Bft)
12.04.2024 11:00 22,6 °C 18,3 °C 51 % 71 % 1031,0 hPa 0,0 l/m² 13,4 km/h (3 Bft) S-SW 1,00 h 703 W/m² 13,0 °C 15,7 °C 19,2 km/h (3 Bft)
12.04.2024 12:00 22,7 °C 19,2 °C 50 % 67 % 1030,6 hPa 0,0 l/m² 14,8 km/h (3 Bft) SW 1,02 h 681 W/m² 12,9 °C 16,4 °C 21,3 km/h (4 Bft)
12.04.2024 13:00 22,8 °C 19,9 °C 50 % 64 % 1030,1 hPa 0,0 l/m² 16,4 km/h (3 Bft) SW 1,00 h 670 W/m² 12,9 °C 16,8 °C 22,4 km/h (4 Bft)
12.04.2024 14:00 23,0 °C 20,8 °C 50 % 63 % 1029,5 hPa 0,0 l/m² 15,9 km/h (3 Bft) SW 1,00 h 726 W/m² 13,6 °C 18,1 °C 21,6 km/h (4 Bft)
12.04.2024 15:00 23,1 °C 21,3 °C 51 % 63 % 1028,9 hPa 0,0 l/m² 14,4 km/h (3 Bft) SW 1,00 h 607 W/m² 13,9 °C 19,1 °C 19,6 km/h (3 Bft)
12.04.2024 16:00 22,8 °C 21,3 °C 51 % 62 % 1028,1 hPa 0,0 l/m² 14,7 km/h (3 Bft) SW 1,00 h 424 W/m² 13,8 °C 18,9 °C 20,0 km/h (4 Bft)
12.04.2024 17:00 22,6 °C 20,2 °C 51 % 66 % 1028,0 hPa 0,0 l/m² 12,7 km/h (3 Bft) W-SW 1,00 h 224 W/m² 13,8 °C 18,1 °C 17,8 km/h (3 Bft)
12.04.2024 18:00 22,4 °C 19,4 °C 52 % 68 % 1027,8 hPa 0,0 l/m² 8,7 km/h (2 Bft) W 1,00 h 149 W/m² 13,5 °C 18,5 °C 13,5 km/h (3 Bft)
12.04.2024 19:00 22,3 °C 17,3 °C 52 % 75 % 1027,6 hPa 0,0 l/m² 4,2 km/h (1 Bft) W 0,32 h 37 W/m² 12,8 °C 17,2 °C 6,4 km/h (2 Bft)
12.04.2024 20:00 22,3 °C 15,7 °C 52 % 79 % 1027,8 hPa 0,0 l/m² 5,7 km/h (2 Bft) W 0,00 h 0 W/m² 12,0 °C 15,5 °C 8,7 km/h (2 Bft)
12.04.2024 21:00 22,2 °C 14,4 °C 52 % 81 % 1027,8 hPa 0,0 l/m² 3,9 km/h (1 Bft) W-SW 0,00 h 0 W/m² 11,2 °C 14,4 °C 6,0 km/h (2 Bft)
12.04.2024 22:00 22,3 °C 13,7 °C 53 % 83 % 1027,7 hPa 0,0 l/m² 4,4 km/h (1 Bft) SW 0,00 h 0 W/m² 10,9 °C 13,5 °C 6,1 km/h (2 Bft)
12.04.2024 23:00 22,1 °C 12,3 °C 53 % 86 % 1027,7 hPa 0,0 l/m² 1,0 km/h (0 Bft) W 0,00 h 0 W/m² 10,1 °C 12,3 °C 2,3 km/h (1 Bft)
13.04.2024 00:00 22,0 °C 11,7 °C 54 % 88 % 1027,5 hPa 0,0 l/m² 1,7 km/h (1 Bft) W 0,00 h 0 W/m² 9,7 °C 11,7 °C 3,2 km/h (1 Bft)
13.04.2024 01:00 21,9 °C 11,7 °C 54 % 89 % 1027,4 hPa 0,0 l/m² 1,8 km/h (1 Bft) W 0,00 h 0 W/m² 10,0 °C 11,7 °C 3,3 km/h (1 Bft)
13.04.2024 02:00 21,9 °C 10,9 °C 54 % 90 % 1027,3 hPa 0,0 l/m² 1,4 km/h (1 Bft) SW 0,00 h 0 W/m² 9,3 °C 10,9 °C 2,9 km/h (1 Bft)
13.04.2024 03:00 21,9 °C 10,8 °C 54 % 90 % 1027,0 hPa 0,0 l/m² 1,1 km/h (1 Bft) SW 0,00 h 0 W/m² 9,3 °C 10,8 °C 2,7 km/h (1 Bft)
13.04.2024 04:00 21,9 °C 10,5 °C 54 % 91 % 1027,0 hPa 0,0 l/m² 1,3 km/h (1 Bft) SW 0,00 h 0 W/m² 9,1 °C 10,5 °C 2,7 km/h (1 Bft)
13.04.2024 05:00 21,8 °C 10,0 °C 54 % 91 % 1026,8 hPa 0,0 l/m² 0,9 km/h (0 Bft) SW 0,00 h 0 W/m² 8,7 °C 10,0 °C 2,4 km/h (1 Bft)
13.04.2024 06:00 21,8 °C 9,9 °C 54 % 93 % 1026,6 hPa 0,0 l/m² 0,6 km/h (0 Bft) SW 0,00 h 22 W/m² 8,8 °C 9,9 °C 1,8 km/h (1 Bft)
13.04.2024 07:00 21,7 °C 11,7 °C 54 % 92 % 1027,0 hPa 0,0 l/m² 1,5 km/h (1 Bft) W-NW 0,92 h 94 W/m² 10,3 °C 11,7 °C 3,5 km/h (1 Bft)
13.04.2024 08:00 21,8 °C 14,0 °C 55 % 88 % 1027,2 hPa 0,0 l/m² 11,4 km/h (2 Bft) S-SW 1,00 h 235 W/m² 12,0 °C 11,5 °C 16,6 km/h (3 Bft)
13.04.2024 09:00 22,0 °C 16,6 °C 56 % 83 % 1026,6 hPa 0,0 l/m² 14,3 km/h (3 Bft) S-SW 0,98 h 440 W/m² 13,7 °C 13,4 °C 20,0 km/h (4 Bft)
13.04.2024 10:00 22,0 °C 18,4 °C 55 % 77 % 1026,3 hPa 0,0 l/m² 17,5 km/h (3 Bft) S-SW 1,00 h 543 W/m² 14,4 °C 14,7 °C 25,1 km/h (4 Bft)
13.04.2024 11:00 22,0 °C 19,9 °C 55 % 73 % 1026,2 hPa 0,0 l/m² 16,5 km/h (3 Bft) SW 1,00 h 655 W/m² 15,0 °C 16,8 °C 24,7 km/h (4 Bft)
13.04.2024 12:00 22,2 °C 20,8 °C 56 % 71 % 1025,7 hPa 0,0 l/m² 15,9 km/h (3 Bft) S-SW 1,02 h 661 W/m² 15,4 °C 18,0 °C 24,5 km/h (4 Bft)
13.04.2024 13:00 22,4 °C 21,6 °C 58 % 66 % 1025,0 hPa 0,0 l/m² 17,2 km/h (3 Bft) SW 1,00 h 650 W/m² 15,1 °C 18,8 °C 25,6 km/h (4 Bft)
13.04.2024 14:00 22,5 °C 22,0 °C 56 % 66 % 1024,2 hPa 0,0 l/m² 16,3 km/h (3 Bft) SW 1,00 h 608 W/m² 15,2 °C 19,4 °C 24,0 km/h (4 Bft)
13.04.2024 15:00 22,4 °C 22,2 °C 56 % 64 % 1023,3 hPa 0,0 l/m² 15,7 km/h (3 Bft) SW 0,98 h 517 W/m² 15,2 °C 19,8 °C 22,9 km/h (4 Bft)
13.04.2024 16:00 22,3 °C 21,9 °C 56 % 65 % 1022,5 hPa 0,0 l/m² 13,4 km/h (3 Bft) SW 1,00 h 371 W/m² 15,0 °C 19,9 °C 19,9 km/h (4 Bft)
13.04.2024 17:00 22,3 °C 21,7 °C 56 % 65 % 1021,7 hPa 0,0 l/m² 12,6 km/h (3 Bft) SW 1,00 h 273 W/m² 14,9 °C 19,9 °C 18,6 km/h (3 Bft)
13.04.2024 18:00 22,3 °C 20,8 °C 56 % 67 % 1021,1 hPa 0,0 l/m² 9,8 km/h (2 Bft) S-SW 1,02 h 138 W/m² 14,5 °C 19,6 °C 14,1 km/h (3 Bft)
13.04.2024 19:00 22,2 °C 18,8 °C 56 % 70 % 1020,3 hPa 0,0 l/m² 6,0 km/h (2 Bft) S-SW 0,13 h 28 W/m² 13,2 °C 18,2 °C 8,3 km/h (2 Bft)
13.04.2024 20:00 22,2 °C 15,9 °C 56 % 78 % 1019,9 hPa 0,0 l/m² 0,5 km/h (0 Bft) S-SW 0,00 h 0 W/m² 12,0 °C 15,9 °C 1,5 km/h (1 Bft)
13.04.2024 21:00 22,1 °C 14,3 °C 56 % 81 % 1019,4 hPa 0,0 l/m² 0,8 km/h (0 Bft) SO 0,00 h 0 W/m² 11,1 °C 14,3 °C 2,1 km/h (1 Bft)
13.04.2024 22:00 22,2 °C 13,3 °C 56 % 84 % 1018,9 hPa 0,0 l/m² 1,0 km/h (0 Bft) SO 0,00 h 0 W/m² 10,6 °C 13,3 °C 2,4 km/h (1 Bft)
13.04.2024 23:00 22,1 °C 12,6 °C 56 % 86 % 1018,4 hPa 0,0 l/m² 0,1 km/h (0 Bft) O 0,00 h 0 W/m² 10,3 °C 12,6 °C 0,6 km/h (0 Bft)
14.04.2024 00:00 21,9 °C 11,5 °C 56 % 89 % 1017,7 hPa 0,0 l/m² 0,5 km/h (0 Bft) O 0,00 h 0 W/m² 9,6 °C 11,5 °C 1,2 km/h (1 Bft)
14.04.2024 01:00 21,9 °C 11,0 °C 56 % 91 % 1017,4 hPa 0,0 l/m² 0,4 km/h (0 Bft) O 0,00 h 0 W/m² 9,5 °C 11,0 °C 0,9 km/h (0 Bft)
14.04.2024 02:00 21,8 °C 11,6 °C 56 % 90 % 1016,9 hPa 0,0 l/m² 0,4 km/h (0 Bft) O-SO 0,00 h 0 W/m² 10,1 °C 11,6 °C 0,9 km/h (0 Bft)
14.04.2024 03:00 21,8 °C 11,5 °C 56 % 89 % 1016,5 hPa 0,0 l/m² 0,4 km/h (0 Bft) S-SW 0,00 h 0 W/m² 9,8 °C 11,5 °C 1,2 km/h (1 Bft)
14.04.2024 04:00 21,8 °C 11,3 °C 56 % 90 % 1016,3 hPa 0,0 l/m² 1,0 km/h (0 Bft) S-SW 0,00 h 0 W/m² 9,7 °C 11,3 °C 1,7 km/h (1 Bft)
14.04.2024 05:00 21,8 °C 10,8 °C 56 % 91 % 1016,4 hPa 0,0 l/m² 1,4 km/h (1 Bft) S-SW 0,00 h 0 W/m² 9,5 °C 10,8 °C 2,8 km/h (1 Bft)
14.04.2024 06:00 21,8 °C 13,3 °C 56 % 89 % 1016,6 hPa 0,0 l/m² 6,2 km/h (2 Bft) W-SW 0,00 h 18 W/m² 11,6 °C 13,1 °C 9,6 km/h (2 Bft)
14.04.2024 07:00 21,8 °C 14,4 °C 56 % 85 % 1017,4 hPa 0,0 l/m² 5,5 km/h (2 Bft) W 0,83 h 77 W/m² 11,9 °C 14,1 °C 9,5 km/h (2 Bft)
14.04.2024 08:00 21,8 °C 15,5 °C 57 % 79 % 1018,4 hPa 0,0 l/m² 5,6 km/h (2 Bft) W-NW 0,98 h 209 W/m² 11,8 °C 15,2 °C 11,3 km/h (2 Bft)
14.04.2024 09:00 22,0 °C 15,7 °C 58 % 78 % 1019,0 hPa 0,0 l/m² 3,4 km/h (1 Bft) W 1,02 h 164 W/m² 11,9 °C 15,7 °C 6,6 km/h (2 Bft)
14.04.2024 10:00 22,1 °C 16,2 °C 57 % 75 % 1019,3 hPa 0,0 l/m² 6,7 km/h (2 Bft) W 1,00 h 190 W/m² 11,8 °C 15,7 °C 12,1 km/h (2 Bft)
14.04.2024 11:00 22,0 °C 15,5 °C 56 % 73 % 1019,6 hPa 0,0 l/m² 8,0 km/h (2 Bft) W-NW 0,98 h 240 W/m² 10,8 °C 14,7 °C 14,1 km/h (3 Bft)
14.04.2024 12:00 22,2 °C 16,7 °C 57 % 69 % 1019,7 hPa 0,0 l/m² 6,5 km/h (2 Bft) W-NW 1,02 h 325 W/m² 10,9 °C 16,3 °C 12,0 km/h (2 Bft)
14.04.2024 13:00 22,1 °C 16,9 °C 55 % 65 % 1019,6 hPa 0,0 l/m² 7,9 km/h (2 Bft) W-NW 1,00 h 299 W/m² 10,2 °C 16,1 °C 14,0 km/h (3 Bft)
14.04.2024 14:00 22,1 °C 17,3 °C 55 % 62 % 1019,5 hPa 0,0 l/m² 8,9 km/h (2 Bft) W 1,00 h 396 W/m² 9,9 °C 16,1 °C 14,6 km/h (3 Bft)
14.04.2024 15:00 22,1 °C 16,8 °C 52 % 61 % 1019,2 hPa 0,0 l/m² 8,3 km/h (2 Bft) NW 1,00 h 254 W/m² 9,3 °C 15,7 °C 14,7 km/h (3 Bft)
14.04.2024 16:00 22,2 °C 17,4 °C 51 % 58 % 1018,7 hPa 0,0 l/m² 8,7 km/h (2 Bft) W-NW 1,00 h 410 W/m² 9,0 °C 16,4 °C 15,2 km/h (3 Bft)
14.04.2024 17:00 22,1 °C 16,8 °C 51 % 58 % 1018,2 hPa 0,0 l/m² 10,9 km/h (2 Bft) N-NW 1,00 h 328 W/m² 8,5 °C 14,8 °C 17,6 km/h (3 Bft)
14.04.2024 18:00 21,9 °C 15,9 °C 51 % 60 % 1017,7 hPa 0,0 l/m² 6,4 km/h (2 Bft) W-NW 1,00 h 131 W/m² 8,0 °C 15,4 °C 11,9 km/h (2 Bft)
14.04.2024 19:00 21,9 °C 14,5 °C 52 % 62 % 1017,7 hPa 0,0 l/m² 4,3 km/h (1 Bft) NW 0,07 h 27 W/m² 7,4 °C 14,3 °C 8,7 km/h (2 Bft)
14.04.2024 20:00 22,0 °C 13,1 °C 54 % 62 % 1017,9 hPa 0,0 l/m² 2,4 km/h (1 Bft) W-NW 0,00 h 0 W/m² 6,0 °C 13,1 °C 5,1 km/h (1 Bft)
14.04.2024 21:00 22,1 °C 11,8 °C 55 % 69 % 1017,8 hPa 0,0 l/m² 0,5 km/h (0 Bft) W 0,00 h 0 W/m² 6,2 °C 11,8 °C 1,6 km/h (1 Bft)
14.04.2024 22:00 22,0 °C 11,0 °C 54 % 74 % 1017,4 hPa 0,0 l/m² 0,1 km/h (0 Bft) W 0,00 h 0 W/m² 6,6 °C 11,0 °C 0,4 km/h (0 Bft)
14.04.2024 23:00 21,7 °C 10,0 °C 55 % 80 % 1016,6 hPa 0,0 l/m² 0,0 km/h (0 Bft) W 0,00 h 0 W/m² 6,7 °C 10,0 °C 0,0 km/h (0 Bft)
Min-Datum _ 12.04.24 11.04.24 11.04.24 11.04.24 09.04.24 - 14.04.24 - - - 11.04.24 11.04.24 14.04.24
_ Min-Zeit 05:00 06:11 17:03 14:18 09:05 - 23:00 - - - 06:11 06:11 23:00
Minimum _ 21,3 °C 0,9 °C 42 % 50 % 1004,7 hPa - 0,0 km/h (0 Bft) - - - 0,0 °C 0,9 °C 0,0 km/h (0 Bft)
Max-Datum _ 08.04.24 08.04.24 14.04.24 12.04.24 12.04.24 09.04.24 09.04.24 - 13.04.24 14.04.24 08.04.24 08.04.24 09.04.24
_ Max-Zeit 14:56 16:34 12:18 08:08 01:29 21:10 16:51 - 18:47 14:27 16:47 16:34 16:51
Maximum _ 23,6 °C 26,4 °C 59 % 95 % 1033,0 hPa 0,6 l/m² 26,3 km/h
W-SW (4 Bft)
- 0,05 h 947 W/m² 20,5 °C 26,4 °C 40,2 km/h
W-SW (6 Bft)
Durchschnitt _ 22,2 °C 13,9 °C 54 % 79 % 1021,4 hPa #1,8 l/m² 5,6 km/h (2 Bft) SW #78:49 h 171 W/m² 10,0 °C 13,0 °C 8,5 km/h (2 Bft)
© 2009 Mathias Hoßbach